FWKI/LLW METAR and TAF weather

Enter ICAO airport designator
Station Type Date Time Source
FWKI METAR 2020/04/06 05:00 UTC NOAA

FWKI 060500Z 05005KT 9999 FEW015 18/14 Q1020 NOSIG


Station Type Date Time Source
FWKI Decoded METAR 2020/04/06 05:00 UTC NOAA

Lilongwe International Airport, Malawi (FWKI) 13-47S 033-46E 1229M
Apr 06, 2020 - 01:00 AM EDT / 2020.04.06 0500 UTC
Wind: from the NE (050 degrees) at 6 MPH (5 KT):0
Visibility: greater than 7 mile(s):0
Sky conditions: mostly clear
Temperature: 64 F (18 C)
Dew Point: 57 F (14 C)
Relative Humidity: 77%
Pressure (altimeter): 30.12 in. Hg (1020 hPa)
ob: FWKI 060500Z 05005KT 9999 FEW015 18/14 Q1020 NOSIG
cycle: 5

Station Type Date Time Source
FWKI TAF 2020/04/06 18:42 UTC NOAA

TAF TAF FWKI 061600Z 0618/0724 11007KT CAVOK
BECMG 0706/0708 07006KT 9999 FEW023
BECMG 0711/0713 07004KT SCT035
FM071500 12004KT CAVOK

Example: see airport list